sensor_id;sensor_type;location;lat;lon;timestamp;P1;durP1;ratioP1;P2;durP2;ratioP2
27939;SDS011;15275;51.716;14.324;2023-01-29T00:02:06;5.75;;;2.90;;
27939;SDS011;15275;51.716;14.324;2023-01-29T00:04:32;6.75;;;2.83;;
27939;SDS011;15275;51.716;14.324;2023-01-29T00:06:58;4.30;;;2.42;;
27939;SDS011;15275;51.716;14.324;2023-01-29T00:09:24;5.97;;;3.22;;
27939;SDS011;15275;51.716;14.324;2023-01-29T00:11:50;4.80;;;3.10;;
27939;SDS011;15275;51.716;14.324;2023-01-29T00:14:16;8.18;;;3.65;;
27939;SDS011;15275;51.716;14.324;2023-01-29T00:16:41;7.75;;;3.63;;
27939;SDS011;15275;51.716;14.324;2023-01-29T00:19:07;6.05;;;3.00;;
27939;SDS011;15275;51.716;14.324;2023-01-29T00:21:33;5.18;;;3.13;;
27939;SDS011;15275;51.716;14.324;2023-01-29T00:23:59;7.25;;;3.00;;
27939;SDS011;15275;51.716;14.324;2023-01-29T00:26:25;5.00;;;2.97;;
27939;SDS011;15275;51.716;14.324;2023-01-29T00:28:52;4.25;;;2.55;;
27939;SDS011;15275;51.716;14.324;2023-01-29T00:31:19;6.63;;;2.95;;
27939;SDS011;15275;51.716;14.324;2023-01-29T00:33:49;5.07;;;2.50;;
27939;SDS011;15275;51.716;14.324;2023-01-29T00:36:16;5.15;;;2.67;;
27939;SDS011;15275;51.716;14.324;2023-01-29T00:38:45;5.03;;;3.03;;
27939;SDS011;15275;51.716;14.324;2023-01-29T00:41:23;5.50;;;2.90;;
27939;SDS011;15275;51.716;14.324;2023-01-29T00:44:13;3.35;;;2.42;;
27939;SDS011;15275;51.716;14.324;2023-01-29T00:46:58;8.40;;;3.03;;
27939;SDS011;15275;51.716;14.324;2023-01-29T00:49:24;4.40;;;2.70;;
27939;SDS011;15275;51.716;14.324;2023-01-29T00:51:50;6.55;;;2.88;;
27939;SDS011;15275;51.716;14.324;2023-01-29T00:54:35;5.70;;;3.33;;
27939;SDS011;15275;51.716;14.324;2023-01-29T00:57:02;7.70;;;2.78;;
27939;SDS011;15275;51.716;14.324;2023-01-29T00:59:28;5.50;;;3.30;;
27939;SDS011;15275;51.716;14.324;2023-01-29T01:01:55;6.82;;;3.85;;
27939;SDS011;15275;51.716;14.324;2023-01-29T01:04:39;5.78;;;3.00;;
27939;SDS011;15275;51.716;14.324;2023-01-29T01:07:05;5.32;;;2.78;;
27939;SDS011;15275;51.716;14.324;2023-01-29T01:09:33;5.22;;;2.97;;
27939;SDS011;15275;51.716;14.324;2023-01-29T01:12:19;5.38;;;3.00;;
27939;SDS011;15275;51.716;14.324;2023-01-29T01:14:45;6.95;;;3.13;;
27939;SDS011;15275;51.716;14.324;2023-01-29T01:17:12;8.73;;;3.70;;
27939;SDS011;15275;51.716;14.324;2023-01-29T01:19:39;7.97;;;3.10;;
27939;SDS011;15275;51.716;14.324;2023-01-29T01:22:05;9.93;;;3.38;;
27939;SDS011;15275;51.716;14.324;2023-01-29T01:24:31;6.28;;;3.00;;
27939;SDS011;15275;51.716;14.324;2023-01-29T01:26:57;6.22;;;3.08;;
27939;SDS011;15275;51.716;14.324;2023-01-29T01:29:23;5.50;;;3.08;;
27939;SDS011;15275;51.716;14.324;2023-01-29T01:31:49;5.00;;;3.47;;
27939;SDS011;15275;51.716;14.324;2023-01-29T01:34:17;5.40;;;3.00;;
27939;SDS011;15275;51.716;14.324;2023-01-29T01:36:43;4.95;;;3.25;;
27939;SDS011;15275;51.716;14.324;2023-01-29T01:39:09;3.70;;;2.40;;
27939;SDS011;15275;51.716;14.324;2023-01-29T01:41:35;3.97;;;2.58;;
27939;SDS011;15275;51.716;14.324;2023-01-29T01:44:01;4.75;;;2.60;;
27939;SDS011;15275;51.716;14.324;2023-01-29T01:46:36;5.22;;;2.90;;
27939;SDS011;15275;51.716;14.324;2023-01-29T01:49:09;4.87;;;2.67;;
27939;SDS011;15275;51.716;14.324;2023-01-29T01:51:49;4.78;;;2.85;;
27939;SDS011;15275;51.716;14.324;2023-01-29T01:54:24;6.40;;;2.47;;
27939;SDS011;15275;51.716;14.324;2023-01-29T01:56:54;3.95;;;2.92;;
27939;SDS011;15275;51.716;14.324;2023-01-29T01:59:34;5.03;;;3.03;;
27939;SDS011;15275;51.716;14.324;2023-01-29T02:02:03;5.47;;;3.00;;
27939;SDS011;15275;51.716;14.324;2023-01-29T02:04:49;6.53;;;3.25;;
27939;SDS011;15275;51.716;14.324;2023-01-29T02:07:34;5.10;;;3.05;;
27939;SDS011;15275;51.716;14.324;2023-01-29T02:10:25;6.57;;;3.28;;
27939;SDS011;15275;51.716;14.324;2023-01-29T02:12:54;5.78;;;3.08;;
27939;SDS011;15275;51.716;14.324;2023-01-29T02:15:20;5.78;;;3.58;;
27939;SDS011;15275;51.716;14.324;2023-01-29T02:17:46;3.70;;;2.75;;
27939;SDS011;15275;51.716;14.324;2023-01-29T02:20:17;5.78;;;3.22;;
27939;SDS011;15275;51.716;14.324;2023-01-29T02:34:16;6.03;;;3.25;;
27939;SDS011;15275;51.716;14.324;2023-01-29T02:37:08;8.35;;;3.38;;
27939;SDS011;15275;51.716;14.324;2023-01-29T02:39:41;5.22;;;3.20;;
27939;SDS011;15275;51.716;14.324;2023-01-29T02:45:03;5.05;;;3.33;;
27939;SDS011;15275;51.716;14.324;2023-01-29T02:47:57;3.75;;;2.50;;
27939;SDS011;15275;51.716;14.324;2023-01-29T02:50:36;4.80;;;3.15;;
27939;SDS011;15275;51.716;14.324;2023-01-29T02:58:31;6.38;;;3.30;;
27939;SDS011;15275;51.716;14.324;2023-01-29T03:01:03;5.25;;;3.00;;
27939;SDS011;15275;51.716;14.324;2023-01-29T03:03:37;3.92;;;3.00;;
27939;SDS011;15275;51.716;14.324;2023-01-29T03:06:23;4.13;;;2.35;;
27939;SDS011;15275;51.716;14.324;2023-01-29T03:09:01;5.57;;;3.03;;
27939;SDS011;15275;51.716;14.324;2023-01-29T03:11:38;5.93;;;2.95;;
27939;SDS011;15275;51.716;14.324;2023-01-29T03:17:34;4.30;;;2.90;;
27939;SDS011;15275;51.716;14.324;2023-01-29T03:20:10;4.20;;;2.45;;
27939;SDS011;15275;51.716;14.324;2023-01-29T03:22:43;6.32;;;3.30;;
27939;SDS011;15275;51.716;14.324;2023-01-29T03:25:14;4.82;;;2.95;;
27939;SDS011;15275;51.716;14.324;2023-01-29T03:28:03;7.00;;;3.05;;
27939;SDS011;15275;51.716;14.324;2023-01-29T03:30:53;4.22;;;2.92;;
27939;SDS011;15275;51.716;14.324;2023-01-29T03:34:04;7.15;;;3.33;;
27939;SDS011;15275;51.716;14.324;2023-01-29T03:36:36;2.97;;;2.50;;
27939;SDS011;15275;51.716;14.324;2023-01-29T03:39:11;4.18;;;2.58;;
27939;SDS011;15275;51.716;14.324;2023-01-29T03:41:44;3.50;;;2.47;;
27939;SDS011;15275;51.716;14.324;2023-01-29T03:47:13;3.88;;;2.58;;
27939;SDS011;15275;51.716;14.324;2023-01-29T03:49:53;3.97;;;2.47;;
27939;SDS011;15275;51.716;14.324;2023-01-29T03:52:31;4.70;;;2.60;;
27939;SDS011;15275;51.716;14.324;2023-01-29T03:55:15;3.65;;;2.38;;
27939;SDS011;15275;51.716;14.324;2023-01-29T03:58:13;5.55;;;3.10;;
27939;SDS011;15275;51.716;14.324;2023-01-29T04:00:57;4.72;;;2.50;;
27939;SDS011;15275;51.716;14.324;2023-01-29T04:03:33;4.93;;;2.60;;
27939;SDS011;15275;51.716;14.324;2023-01-29T04:06:15;3.50;;;2.65;;
27939;SDS011;15275;51.716;14.324;2023-01-29T04:11:17;5.72;;;2.70;;
27939;SDS011;15275;51.716;14.324;2023-01-29T04:13:46;3.90;;;2.70;;
27939;SDS011;15275;51.716;14.324;2023-01-29T04:16:14;4.82;;;2.90;;
27939;SDS011;15275;51.716;14.324;2023-01-29T04:18:49;4.25;;;2.45;;
27939;SDS011;15275;51.716;14.324;2023-01-29T04:21:15;5.10;;;2.78;;
27939;SDS011;15275;51.716;14.324;2023-01-29T04:23:42;3.78;;;2.55;;
27939;SDS011;15275;51.716;14.324;2023-01-29T04:28:54;4.90;;;3.10;;
27939;SDS011;15275;51.716;14.324;2023-01-29T04:31:44;3.83;;;2.45;;
27939;SDS011;15275;51.716;14.324;2023-01-29T04:34:47;7.03;;;3.17;;
27939;SDS011;15275;51.716;14.324;2023-01-29T04:37:37;4.93;;;2.90;;
27939;SDS011;15275;51.716;14.324;2023-01-29T04:40:14;4.35;;;2.60;;
27939;SDS011;15275;51.716;14.324;2023-01-29T04:43:09;8.93;;;2.92;;
27939;SDS011;15275;51.716;14.324;2023-01-29T04:51:21;4.45;;;2.90;;
27939;SDS011;15275;51.716;14.324;2023-01-29T04:54:01;5.32;;;3.20;;
27939;SDS011;15275;51.716;14.324;2023-01-29T04:56:47;4.32;;;3.28;;
27939;SDS011;15275;51.716;14.324;2023-01-29T04:59:29;6.35;;;3.47;;
27939;SDS011;15275;51.716;14.324;2023-01-29T05:02:04;5.78;;;3.80;;
27939;SDS011;15275;51.716;14.324;2023-01-29T05:04:32;6.43;;;3.63;;
27939;SDS011;15275;51.716;14.324;2023-01-29T05:07:00;5.63;;;3.85;;
27939;SDS011;15275;51.716;14.324;2023-01-29T05:09:32;3.65;;;2.58;;
27939;SDS011;15275;51.716;14.324;2023-01-29T05:12:00;6.13;;;3.80;;
27939;SDS011;15275;51.716;14.324;2023-01-29T05:14:29;5.43;;;3.40;;
27939;SDS011;15275;51.716;14.324;2023-01-29T05:16:58;5.63;;;3.83;;
27939;SDS011;15275;51.716;14.324;2023-01-29T05:19:30;6.50;;;4.80;;
27939;SDS011;15275;51.716;14.324;2023-01-29T05:21:56;6.93;;;4.13;;
27939;SDS011;15275;51.716;14.324;2023-01-29T05:24:24;6.43;;;3.70;;
27939;SDS011;15275;51.716;14.324;2023-01-29T05:26:51;5.25;;;3.90;;
27939;SDS011;15275;51.716;14.324;2023-01-29T05:29:42;5.13;;;3.67;;
27939;SDS011;15275;51.716;14.324;2023-01-29T05:32:11;8.07;;;4.47;;
27939;SDS011;15275;51.716;14.324;2023-01-29T05:34:37;9.93;;;4.22;;
27939;SDS011;15275;51.716;14.324;2023-01-29T05:37:03;7.75;;;4.22;;
27939;SDS011;15275;51.716;14.324;2023-01-29T05:39:29;5.07;;;3.88;;
27939;SDS011;15275;51.716;14.324;2023-01-29T05:41:55;6.20;;;3.60;;
27939;SDS011;15275;51.716;14.324;2023-01-29T05:44:21;6.15;;;4.28;;
27939;SDS011;15275;51.716;14.324;2023-01-29T05:46:47;4.85;;;4.00;;
27939;SDS011;15275;51.716;14.324;2023-01-29T05:49:15;7.15;;;4.43;;
27939;SDS011;15275;51.716;14.324;2023-01-29T05:51:42;7.80;;;4.55;;
27939;SDS011;15275;51.716;14.324;2023-01-29T05:54:10;7.90;;;4.80;;
27939;SDS011;15275;51.716;14.324;2023-01-29T05:56:36;8.52;;;4.20;;
27939;SDS011;15275;51.716;14.324;2023-01-29T05:59:03;8.02;;;4.43;;
27939;SDS011;15275;51.716;14.324;2023-01-29T06:01:29;9.10;;;5.40;;
27939;SDS011;15275;51.716;14.324;2023-01-29T06:03:55;7.95;;;4.65;;
27939;SDS011;15275;51.716;14.324;2023-01-29T06:06:21;7.90;;;4.45;;
27939;SDS011;15275;51.716;14.324;2023-01-29T06:08:47;8.02;;;4.80;;
27939;SDS011;15275;51.716;14.324;2023-01-29T06:11:13;10.55;;;5.07;;
27939;SDS011;15275;51.716;14.324;2023-01-29T06:13:42;8.95;;;4.72;;
27939;SDS011;15275;51.716;14.324;2023-01-29T06:16:10;7.80;;;5.30;;
27939;SDS011;15275;51.716;14.324;2023-01-29T06:18:38;9.52;;;5.50;;
27939;SDS011;15275;51.716;14.324;2023-01-29T06:21:06;9.70;;;5.60;;
27939;SDS011;15275;51.716;14.324;2023-01-29T06:23:36;9.43;;;5.63;;
27939;SDS011;15275;51.716;14.324;2023-01-29T06:26:03;10.80;;;5.43;;
27939;SDS011;15275;51.716;14.324;2023-01-29T06:28:32;14.55;;;6.45;;
27939;SDS011;15275;51.716;14.324;2023-01-29T06:31:00;9.95;;;5.97;;
27939;SDS011;15275;51.716;14.324;2023-01-29T06:33:27;10.93;;;6.05;;
27939;SDS011;15275;51.716;14.324;2023-01-29T06:36:00;9.43;;;6.07;;
27939;SDS011;15275;51.716;14.324;2023-01-29T06:38:28;14.60;;;6.68;;
27939;SDS011;15275;51.716;14.324;2023-01-29T06:40:55;10.88;;;6.15;;
27939;SDS011;15275;51.716;14.324;2023-01-29T06:43:21;8.30;;;5.68;;
27939;SDS011;15275;51.716;14.324;2023-01-29T06:45:54;12.20;;;6.57;;
27939;SDS011;15275;51.716;14.324;2023-01-29T06:48:22;10.05;;;6.25;;
27939;SDS011;15275;51.716;14.324;2023-01-29T06:50:49;14.30;;;6.88;;
27939;SDS011;15275;51.716;14.324;2023-01-29T06:53:16;10.60;;;6.10;;
27939;SDS011;15275;51.716;14.324;2023-01-29T06:55:53;10.38;;;5.78;;
27939;SDS011;15275;51.716;14.324;2023-01-29T06:58:19;12.38;;;7.28;;
27939;SDS011;15275;51.716;14.324;2023-01-29T07:00:45;14.68;;;7.20;;
27939;SDS011;15275;51.716;14.324;2023-01-29T07:03:11;11.25;;;6.65;;
27939;SDS011;15275;51.716;14.324;2023-01-29T07:05:37;11.27;;;6.07;;
27939;SDS011;15275;51.716;14.324;2023-01-29T07:08:03;11.23;;;6.20;;
27939;SDS011;15275;51.716;14.324;2023-01-29T07:10:29;11.80;;;6.13;;
27939;SDS011;15275;51.716;14.324;2023-01-29T07:12:57;13.35;;;6.68;;
27939;SDS011;15275;51.716;14.324;2023-01-29T07:15:24;14.10;;;6.63;;
27939;SDS011;15275;51.716;14.324;2023-01-29T07:17:59;12.90;;;6.60;;
27939;SDS011;15275;51.716;14.324;2023-01-29T07:20:28;12.20;;;6.93;;
27939;SDS011;15275;51.716;14.324;2023-01-29T07:22:55;12.88;;;7.25;;
27939;SDS011;15275;51.716;14.324;2023-01-29T07:25:22;9.95;;;6.38;;
27939;SDS011;15275;51.716;14.324;2023-01-29T07:27:49;11.48;;;6.88;;
27939;SDS011;15275;51.716;14.324;2023-01-29T07:30:15;12.23;;;7.43;;
27939;SDS011;15275;51.716;14.324;2023-01-29T07:32:41;13.35;;;7.30;;
27939;SDS011;15275;51.716;14.324;2023-01-29T07:35:08;10.93;;;6.68;;
27939;SDS011;15275;51.716;14.324;2023-01-29T07:37:34;14.35;;;7.60;;
27939;SDS011;15275;51.716;14.324;2023-01-29T07:40:00;12.07;;;7.18;;
27939;SDS011;15275;51.716;14.324;2023-01-29T07:42:26;10.40;;;6.35;;
27939;SDS011;15275;51.716;14.324;2023-01-29T07:44:52;14.30;;;7.97;;
27939;SDS011;15275;51.716;14.324;2023-01-29T07:47:18;16.15;;;7.68;;
27939;SDS011;15275;51.716;14.324;2023-01-29T07:49:43;12.82;;;7.00;;
27939;SDS011;15275;51.716;14.324;2023-01-29T07:52:09;12.77;;;6.90;;
27939;SDS011;15275;51.716;14.324;2023-01-29T07:54:35;15.15;;;7.38;;
27939;SDS011;15275;51.716;14.324;2023-01-29T07:57:01;14.38;;;7.88;;
27939;SDS011;15275;51.716;14.324;2023-01-29T07:59:27;15.73;;;7.82;;
27939;SDS011;15275;51.716;14.324;2023-01-29T08:01:53;15.43;;;8.00;;
27939;SDS011;15275;51.716;14.324;2023-01-29T08:04:19;15.23;;;8.13;;
27939;SDS011;15275;51.716;14.324;2023-01-29T08:06:44;10.93;;;6.57;;
27939;SDS011;15275;51.716;14.324;2023-01-29T08:09:10;12.93;;;7.13;;
27939;SDS011;15275;51.716;14.324;2023-01-29T08:11:36;18.38;;;8.60;;
27939;SDS011;15275;51.716;14.324;2023-01-29T08:14:02;13.85;;;8.05;;
27939;SDS011;15275;51.716;14.324;2023-01-29T08:16:28;13.00;;;7.57;;
27939;SDS011;15275;51.716;14.324;2023-01-29T08:18:54;13.93;;;7.18;;
27939;SDS011;15275;51.716;14.324;2023-01-29T08:21:20;13.80;;;7.97;;
27939;SDS011;15275;51.716;14.324;2023-01-29T08:23:45;12.55;;;7.63;;
27939;SDS011;15275;51.716;14.324;2023-01-29T08:26:11;14.18;;;7.65;;
27939;SDS011;15275;51.716;14.324;2023-01-29T08:28:37;12.77;;;7.10;;
27939;SDS011;15275;51.716;14.324;2023-01-29T08:31:03;12.23;;;7.70;;
27939;SDS011;15275;51.716;14.324;2023-01-29T08:33:36;14.43;;;7.67;;
27939;SDS011;15275;51.716;14.324;2023-01-29T08:36:02;14.15;;;8.02;;
27939;SDS011;15275;51.716;14.324;2023-01-29T08:38:28;14.98;;;8.25;;
27939;SDS011;15275;51.716;14.324;2023-01-29T08:40:54;14.80;;;7.97;;
27939;SDS011;15275;51.716;14.324;2023-01-29T08:43:19;13.57;;;8.07;;
27939;SDS011;15275;51.716;14.324;2023-01-29T08:45:45;14.10;;;7.68;;
27939;SDS011;15275;51.716;14.324;2023-01-29T08:48:11;13.38;;;6.63;;
27939;SDS011;15275;51.716;14.324;2023-01-29T08:50:37;12.32;;;7.95;;
27939;SDS011;15275;51.716;14.324;2023-01-29T08:53:03;16.95;;;7.70;;
27939;SDS011;15275;51.716;14.324;2023-01-29T08:55:32;15.00;;;7.97;;
27939;SDS011;15275;51.716;14.324;2023-01-29T09:00:34;13.73;;;7.10;;
27939;SDS011;15275;51.716;14.324;2023-01-29T09:03:00;14.65;;;7.45;;
27939;SDS011;15275;51.716;14.324;2023-01-29T09:05:28;13.23;;;8.02;;
27939;SDS011;15275;51.716;14.324;2023-01-29T09:07:57;16.67;;;8.05;;
27939;SDS011;15275;51.716;14.324;2023-01-29T09:10:23;11.70;;;6.80;;
27939;SDS011;15275;51.716;14.324;2023-01-29T09:12:49;14.10;;;8.05;;
27939;SDS011;15275;51.716;14.324;2023-01-29T09:15:15;12.95;;;7.53;;
27939;SDS011;15275;51.716;14.324;2023-01-29T09:17:41;13.95;;;8.00;;
27939;SDS011;15275;51.716;14.324;2023-01-29T09:20:07;16.48;;;8.23;;
27939;SDS011;15275;51.716;14.324;2023-01-29T09:22:34;13.95;;;8.00;;
27939;SDS011;15275;51.716;14.324;2023-01-29T09:25:00;15.13;;;8.25;;
27939;SDS011;15275;51.716;14.324;2023-01-29T09:27:27;14.82;;;8.35;;
27939;SDS011;15275;51.716;14.324;2023-01-29T09:29:53;16.10;;;8.55;;
27939;SDS011;15275;51.716;14.324;2023-01-29T09:32:18;13.43;;;7.95;;
27939;SDS011;15275;51.716;14.324;2023-01-29T09:34:44;15.38;;;8.63;;
27939;SDS011;15275;51.716;14.324;2023-01-29T09:37:10;14.82;;;8.80;;
27939;SDS011;15275;51.716;14.324;2023-01-29T09:39:36;16.88;;;8.73;;
27939;SDS011;15275;51.716;14.324;2023-01-29T09:42:07;15.60;;;9.32;;
27939;SDS011;15275;51.716;14.324;2023-01-29T09:47:25;16.27;;;8.40;;
27939;SDS011;15275;51.716;14.324;2023-01-29T09:49:59;12.82;;;7.70;;
27939;SDS011;15275;51.716;14.324;2023-01-29T09:52:57;16.20;;;8.63;;
27939;SDS011;15275;51.716;14.324;2023-01-29T09:55:30;16.58;;;8.88;;
27939;SDS011;15275;51.716;14.324;2023-01-29T09:58:18;15.05;;;8.25;;
27939;SDS011;15275;51.716;14.324;2023-01-29T10:23:59;14.70;;;8.73;;
27939;SDS011;15275;51.716;14.324;2023-01-29T10:26:44;15.88;;;8.63;;
27939;SDS011;15275;51.716;14.324;2023-01-29T10:29:12;14.73;;;8.65;;
27939;SDS011;15275;51.716;14.324;2023-01-29T10:31:43;14.35;;;8.15;;
27939;SDS011;15275;51.716;14.324;2023-01-29T10:34:37;17.40;;;9.50;;
27939;SDS011;15275;51.716;14.324;2023-01-29T10:37:15;14.10;;;7.95;;
27939;SDS011;15275;51.716;14.324;2023-01-29T10:39:48;16.55;;;8.63;;
27939;SDS011;15275;51.716;14.324;2023-01-29T10:42:23;14.27;;;8.40;;
27939;SDS011;15275;51.716;14.324;2023-01-29T10:45:24;15.50;;;8.10;;
27939;SDS011;15275;51.716;14.324;2023-01-29T11:00:41;13.88;;;8.15;;
27939;SDS011;15275;51.716;14.324;2023-01-29T11:06:22;15.25;;;8.93;;
27939;SDS011;15275;51.716;14.324;2023-01-29T11:14:50;14.90;;;7.97;;
27939;SDS011;15275;51.716;14.324;2023-01-29T11:19:52;13.55;;;7.93;;
27939;SDS011;15275;51.716;14.324;2023-01-29T11:22:25;14.38;;;8.18;;
27939;SDS011;15275;51.716;14.324;2023-01-29T11:27:44;16.48;;;8.73;;
27939;SDS011;15275;51.716;14.324;2023-01-29T11:30:36;21.23;;;8.63;;
27939;SDS011;15275;51.716;14.324;2023-01-29T11:35:46;16.42;;;8.70;;
27939;SDS011;15275;51.716;14.324;2023-01-29T11:38:20;15.02;;;9.18;;
27939;SDS011;15275;51.716;14.324;2023-01-29T11:40:52;13.70;;;8.70;;
27939;SDS011;15275;51.716;14.324;2023-01-29T11:43:35;17.05;;;8.80;;
27939;SDS011;15275;51.716;14.324;2023-01-29T11:46:01;14.95;;;8.70;;
27939;SDS011;15275;51.716;14.324;2023-01-29T11:51:22;14.30;;;8.18;;
27939;SDS011;15275;51.716;14.324;2023-01-29T11:53:54;14.77;;;8.30;;
27939;SDS011;15275;51.716;14.324;2023-01-29T11:56:32;13.82;;;8.15;;
27939;SDS011;15275;51.716;14.324;2023-01-29T11:59:12;15.75;;;9.13;;
27939;SDS011;15275;51.716;14.324;2023-01-29T12:04:51;17.95;;;9.07;;
27939;SDS011;15275;51.716;14.324;2023-01-29T12:07:19;13.38;;;8.55;;
27939;SDS011;15275;51.716;14.324;2023-01-29T12:09:53;12.85;;;7.90;;
27939;SDS011;15275;51.716;14.324;2023-01-29T12:15:02;13.93;;;8.25;;
27939;SDS011;15275;51.716;14.324;2023-01-29T12:17:33;14.25;;;8.32;;
27939;SDS011;15275;51.716;14.324;2023-01-29T12:20:09;14.80;;;8.50;;
27939;SDS011;15275;51.716;14.324;2023-01-29T12:22:49;14.82;;;8.48;;
27939;SDS011;15275;51.716;14.324;2023-01-29T12:34:21;14.13;;;7.60;;
27939;SDS011;15275;51.716;14.324;2023-01-29T12:39:55;15.02;;;8.35;;
27939;SDS011;15275;51.716;14.324;2023-01-29T12:42:21;15.35;;;8.18;;
27939;SDS011;15275;51.716;14.324;2023-01-29T12:50:06;15.23;;;7.78;;
27939;SDS011;15275;51.716;14.324;2023-01-29T12:52:46;12.48;;;8.30;;
27939;SDS011;15275;51.716;14.324;2023-01-29T12:55:19;14.27;;;8.18;;
27939;SDS011;15275;51.716;14.324;2023-01-29T13:00:27;16.30;;;9.45;;
27939;SDS011;15275;51.716;14.324;2023-01-29T13:02:59;18.40;;;10.27;;
27939;SDS011;15275;51.716;14.324;2023-01-29T13:08:22;14.73;;;8.77;;
27939;SDS011;15275;51.716;14.324;2023-01-29T13:10:54;14.18;;;8.27;;
27939;SDS011;15275;51.716;14.324;2023-01-29T13:13:33;15.30;;;8.88;;
27939;SDS011;15275;51.716;14.324;2023-01-29T13:16:02;16.30;;;8.65;;
27939;SDS011;15275;51.716;14.324;2023-01-29T13:18:41;14.30;;;8.75;;
27939;SDS011;15275;51.716;14.324;2023-01-29T13:21:13;14.38;;;9.48;;
27939;SDS011;15275;51.716;14.324;2023-01-29T13:23:45;14.25;;;8.30;;
27939;SDS011;15275;51.716;14.324;2023-01-29T13:26:26;14.13;;;8.60;;
27939;SDS011;15275;51.716;14.324;2023-01-29T13:28:52;12.32;;;7.55;;
27939;SDS011;15275;51.716;14.324;2023-01-29T13:33:55;14.75;;;9.13;;
27939;SDS011;15275;51.716;14.324;2023-01-29T13:36:29;16.05;;;8.98;;
27939;SDS011;15275;51.716;14.324;2023-01-29T13:39:00;15.35;;;8.63;;
27939;SDS011;15275;51.716;14.324;2023-01-29T13:41:33;14.98;;;9.38;;
27939;SDS011;15275;51.716;14.324;2023-01-29T13:44:02;13.07;;;8.00;;
27939;SDS011;15275;51.716;14.324;2023-01-29T13:46:31;16.25;;;9.60;;
27939;SDS011;15275;51.716;14.324;2023-01-29T13:48:57;16.33;;;8.32;;
27939;SDS011;15275;51.716;14.324;2023-01-29T13:51:31;13.60;;;8.45;;
27939;SDS011;15275;51.716;14.324;2023-01-29T13:54:04;15.20;;;8.60;;
27939;SDS011;15275;51.716;14.324;2023-01-29T13:56:42;15.77;;;9.35;;
27939;SDS011;15275;51.716;14.324;2023-01-29T14:00:08;15.80;;;8.65;;
27939;SDS011;15275;51.716;14.324;2023-01-29T14:04:50;14.80;;;8.20;;
27939;SDS011;15275;51.716;14.324;2023-01-29T14:12:44;15.60;;;8.60;;
27939;SDS011;15275;51.716;14.324;2023-01-29T14:18:25;15.20;;;9.25;;
27939;SDS011;15275;51.716;14.324;2023-01-29T14:23:44;15.55;;;9.25;;
27939;SDS011;15275;51.716;14.324;2023-01-29T14:26:29;15.57;;;8.32;;
27939;SDS011;15275;51.716;14.324;2023-01-29T14:34:24;12.63;;;8.43;;
27939;SDS011;15275;51.716;14.324;2023-01-29T14:36:57;13.10;;;7.75;;
27939;SDS011;15275;51.716;14.324;2023-01-29T14:39:53;20.02;;;10.73;;
27939;SDS011;15275;51.716;14.324;2023-01-29T14:42:23;20.58;;;10.50;;
27939;SDS011;15275;51.716;14.324;2023-01-29T14:49:57;21.58;;;10.30;;
27939;SDS011;15275;51.716;14.324;2023-01-29T14:52:34;20.20;;;9.77;;
27939;SDS011;15275;51.716;14.324;2023-01-29T14:55:05;20.20;;;10.50;;
27939;SDS011;15275;51.716;14.324;2023-01-29T14:57:59;18.50;;;10.50;;
27939;SDS011;15275;51.716;14.324;2023-01-29T15:00:32;18.13;;;8.50;;
27939;SDS011;15275;51.716;14.324;2023-01-29T15:03:02;16.35;;;9.38;;
27939;SDS011;15275;51.716;14.324;2023-01-29T15:05:37;18.20;;;9.25;;
27939;SDS011;15275;51.716;14.324;2023-01-29T15:08:15;15.77;;;9.57;;
27939;SDS011;15275;51.716;14.324;2023-01-29T15:14:32;13.45;;;7.68;;
27939;SDS011;15275;51.716;14.324;2023-01-29T15:19:34;12.00;;;6.90;;
27939;SDS011;15275;51.716;14.324;2023-01-29T15:24:43;12.55;;;7.45;;
27939;SDS011;15275;51.716;14.324;2023-01-29T15:27:12;14.52;;;8.82;;
27939;SDS011;15275;51.716;14.324;2023-01-29T15:29:46;11.77;;;7.40;;
27939;SDS011;15275;51.716;14.324;2023-01-29T15:32:25;14.70;;;7.90;;
27939;SDS011;15275;51.716;14.324;2023-01-29T15:34:57;13.07;;;8.18;;
27939;SDS011;15275;51.716;14.324;2023-01-29T15:37:31;14.13;;;7.97;;
27939;SDS011;15275;51.716;14.324;2023-01-29T15:39:59;15.25;;;8.32;;
27939;SDS011;15275;51.716;14.324;2023-01-29T15:42:27;14.18;;;8.35;;
27939;SDS011;15275;51.716;14.324;2023-01-29T15:45:23;11.70;;;7.28;;
27939;SDS011;15275;51.716;14.324;2023-01-29T15:47:58;17.95;;;8.30;;
27939;SDS011;15275;51.716;14.324;2023-01-29T15:50:38;17.13;;;8.75;;
27939;SDS011;15275;51.716;14.324;2023-01-29T15:53:06;15.73;;;8.45;;
27939;SDS011;15275;51.716;14.324;2023-01-29T15:55:38;17.52;;;9.10;;
27939;SDS011;15275;51.716;14.324;2023-01-29T15:58:05;16.27;;;9.20;;
27939;SDS011;15275;51.716;14.324;2023-01-29T16:00:37;17.15;;;8.13;;
27939;SDS011;15275;51.716;14.324;2023-01-29T16:03:12;16.95;;;8.48;;
27939;SDS011;15275;51.716;14.324;2023-01-29T16:05:39;14.98;;;8.27;;
27939;SDS011;15275;51.716;14.324;2023-01-29T16:08:05;13.05;;;7.78;;
27939;SDS011;15275;51.716;14.324;2023-01-29T16:10:37;14.85;;;7.85;;
27939;SDS011;15275;51.716;14.324;2023-01-29T16:13:08;13.30;;;7.55;;
27939;SDS011;15275;51.716;14.324;2023-01-29T16:15:53;18.33;;;9.15;;
27939;SDS011;15275;51.716;14.324;2023-01-29T16:18:24;17.60;;;9.52;;
27939;SDS011;15275;51.716;14.324;2023-01-29T16:21:07;15.73;;;7.18;;
27939;SDS011;15275;51.716;14.324;2023-01-29T16:23:59;15.45;;;7.53;;
27939;SDS011;15275;51.716;14.324;2023-01-29T16:26:28;18.70;;;9.18;;
27939;SDS011;15275;51.716;14.324;2023-01-29T16:29:08;15.13;;;8.30;;
27939;SDS011;15275;51.716;14.324;2023-01-29T16:31:37;16.10;;;9.15;;
27939;SDS011;15275;51.716;14.324;2023-01-29T16:34:23;16.85;;;9.23;;
27939;SDS011;15275;51.716;14.324;2023-01-29T16:36:56;15.90;;;9.25;;
27939;SDS011;15275;51.716;14.324;2023-01-29T16:39:30;18.45;;;8.88;;
27939;SDS011;15275;51.716;14.324;2023-01-29T16:44:39;20.08;;;8.80;;
27939;SDS011;15275;51.716;14.324;2023-01-29T16:47:11;18.85;;;9.80;;
27939;SDS011;15275;51.716;14.324;2023-01-29T16:49:47;16.83;;;8.95;;
27939;SDS011;15275;51.716;14.324;2023-01-29T16:52:23;16.60;;;9.25;;
27939;SDS011;15275;51.716;14.324;2023-01-29T16:55:31;16.83;;;9.35;;
27939;SDS011;15275;51.716;14.324;2023-01-29T16:57:52;17.90;;;8.85;;
27939;SDS011;15275;51.716;14.324;2023-01-29T17:00:29;16.33;;;8.50;;
27939;SDS011;15275;51.716;14.324;2023-01-29T17:02:59;17.55;;;9.20;;
27939;SDS011;15275;51.716;14.324;2023-01-29T17:05:30;18.02;;;8.80;;
27939;SDS011;15275;51.716;14.324;2023-01-29T17:07:59;16.45;;;8.82;;
27939;SDS011;15275;51.716;14.324;2023-01-29T17:10:26;17.38;;;9.63;;
27939;SDS011;15275;51.716;14.324;2023-01-29T17:13:04;14.85;;;8.77;;
27939;SDS011;15275;51.716;14.324;2023-01-29T17:18:22;16.27;;;8.68;;
27939;SDS011;15275;51.716;14.324;2023-01-29T17:20:49;16.85;;;8.85;;
27939;SDS011;15275;51.716;14.324;2023-01-29T17:23:17;17.77;;;8.57;;
27939;SDS011;15275;51.716;14.324;2023-01-29T17:25:43;15.35;;;8.25;;
27939;SDS011;15275;51.716;14.324;2023-01-29T17:28:14;17.17;;;8.52;;
27939;SDS011;15275;51.716;14.324;2023-01-29T17:30:42;17.08;;;7.60;;
27939;SDS011;15275;51.716;14.324;2023-01-29T17:33:12;14.05;;;8.77;;
27939;SDS011;15275;51.716;14.324;2023-01-29T17:35:45;16.60;;;8.57;;
27939;SDS011;15275;51.716;14.324;2023-01-29T17:38:13;16.38;;;7.82;;
27939;SDS011;15275;51.716;14.324;2023-01-29T17:40:46;16.52;;;8.27;;
27939;SDS011;15275;51.716;14.324;2023-01-29T17:43:27;15.05;;;8.40;;